Time;durP1;ratioP1;P1;durP2;ratioP2;P2;SDS_P1;SDS_P2;PMS_P1;PMS_P2;Temp;Humidity;BMP_temperature;BMP_pressure;BME280_temperature;BME280_humidity;BME280_pressure;Samples;Min_cycle;Max_cycle;Signal;HPM_P1;HPM_P2
2021/07/26 00:01:33;;;;;;;;;6.50;6.50;;;;;27.14;44.41;100842.94;4925067;28;45318;-84
2021/07/26 00:03:59;;;;;;;;;6.00;6.00;;;;;27.22;44.50;100838.38;4925406;28;45325;-84
2021/07/26 00:06:24;;;;;;;;;5.00;5.00;;;;;27.26;44.14;100837.72;4924949;28;45504;-84
2021/07/26 00:08:49;;;;;;;;;4.75;4.75;;;;;27.35;44.08;100837.47;4921630;28;45492;-84
2021/07/26 00:11:14;;;;;;;;;4.75;4.00;;;;;27.39;44.34;100841.34;4921491;28;45339;-84
2021/07/26 00:13:40;;;;;;;;;6.00;6.00;;;;;27.43;44.18;100836.38;4925268;28;45389;-84
2021/07/26 00:16:07;;;;;;;;;4.00;4.00;;;;;27.48;44.40;100842.69;4925392;28;45661;-84
2021/07/26 00:18:33;;;;;;;;;5.00;5.00;;;;;27.49;44.21;100833.66;4925585;28;45351;-84
2021/07/26 00:20:59;;;;;;;;;5.00;5.00;;;;;27.50;43.77;100829.97;4936047;28;48008;-84
2021/07/26 00:23:26;;;;;;;;;6.00;6.00;;;;;27.60;43.86;100836.66;4939553;28;49643;-84
2021/07/26 00:25:53;;;;;;;;;6.50;6.50;;;;;27.63;43.75;100841.56;4927393;28;45362;-84
2021/07/26 00:28:18;;;;;;;;;6.50;4.75;;;;;27.67;44.03;100836.59;4928305;28;45473;-84
2021/07/26 00:30:44;;;;;;;;;6.75;6.75;;;;;27.70;43.55;100826.28;4927280;28;46040;-85
2021/07/26 00:34:07;;;;;;;;;6.25;6.00;;;;;27.73;43.60;100823.19;4936125;28;45475;-84
2021/07/26 00:36:38;;;;;;;;;6.00;4.00;;;;;27.75;43.96;100825.63;4916300;28;45679;-84
2021/07/26 00:39:05;;;;;;;;;5.00;5.00;;;;;27.79;43.94;100834.03;4916411;28;45423;-85
2021/07/26 00:41:30;;;;;;;;;4.50;4.50;;;;;27.81;43.96;100829.31;4916138;28;45498;-85
2021/07/26 00:43:56;;;;;;;;;4.25;4.25;;;;;27.77;43.51;100822.72;4918228;28;45432;-85
2021/07/26 00:46:21;;;;;;;;;5.00;5.00;;;;;27.84;43.44;100827.00;4916326;28;45575;-85
2021/07/26 00:48:48;;;;;;;;;4.00;4.00;;;;;27.88;43.33;100829.22;4914739;28;45378;-85
2021/07/26 00:51:13;;;;;;;;;5.00;5.00;;;;;27.89;43.95;100822.84;4916290;28;45397;-85
2021/07/26 00:53:39;;;;;;;;;5.00;5.00;;;;;27.90;43.95;100816.44;4916032;28;45332;-85
2021/07/26 00:56:06;;;;;;;;;8.25;7.50;;;;;27.91;43.87;100820.78;4903033;28;45340;-85
2021/07/26 00:58:33;;;;;;;;;6.00;6.00;;;;;27.92;43.35;100817.06;4916123;28;45441;-84
2021/07/26 01:00:59;;;;;;;;;5.75;5.75;;;;;27.94;43.85;100821.16;4898530;28;45632;-84
2021/07/26 01:03:24;;;;;;;;;5.75;5.75;;;;;27.99;43.67;100825.00;4915522;28;45392;-84
2021/07/26 01:05:49;;;;;;;;;4.00;4.00;;;;;27.98;43.39;100826.84;4916236;28;45323;-84
2021/07/26 01:08:15;;;;;;;;;6.50;4.75;;;;;28.00;43.68;100822.09;4918122;28;45357;-84
2021/07/26 01:10:41;;;;;;;;;6.50;6.00;;;;;28.02;43.19;100829.91;4916065;28;47483;-84
2021/07/26 01:13:07;;;;;;;;;5.75;5.75;;;;;28.01;43.33;100828.28;4927428;28;45286;-84
2021/07/26 01:15:32;;;;;;;;;5.75;5.50;;;;;28.04;43.79;100823.31;4936801;28;45568;-84
2021/07/26 01:18:22;;;;;;;;;6.50;5.75;;;;;28.06;43.15;100828.44;4924837;28;45425;-84
2021/07/26 01:20:57;;;;;;;;;5.00;5.00;;;;;28.04;42.99;100817.97;4923348;28;46222;-85
2021/07/26 01:23:24;;;;;;;;;5.25;5.25;;;;;28.09;43.62;100828.00;4935997;28;45453;-85
2021/07/26 01:25:50;;;;;;;;;5.50;5.50;;;;;28.09;43.01;100825.31;4926874;28;45412;-84
2021/07/26 01:28:18;;;;;;;;;3.75;3.75;;;;;28.12;43.63;100827.56;4927187;28;45225;-85
2021/07/26 01:30:44;;;;;;;;;5.00;5.00;;;;;28.13;43.77;100829.16;4942008;28;47055;-85
2021/07/26 01:33:11;;;;;;;;;7.50;6.00;;;;;28.11;43.48;100819.72;4925316;28;45533;-84
2021/07/26 01:35:37;;;;;;;;;6.00;5.00;;;;;28.16;43.67;100826.06;4922901;28;45246;-84
2021/07/26 01:38:04;;;;;;;;;5.00;5.00;;;;;28.16;43.46;100825.22;4925141;28;45438;-85
2021/07/26 01:40:29;;;;;;;;;4.75;4.75;;;;;28.16;43.63;100826.06;4927117;28;46159;-84
2021/07/26 01:43:02;;;;;;;;;5.00;5.00;;;;;28.13;42.96;100817.69;4927178;28;45461;-84
2021/07/26 01:45:28;;;;;;;;;5.75;4.75;;;;;28.18;42.94;100828.53;4927379;28;45413;-84
2021/07/26 01:47:59;;;;;;;;;4.75;4.75;;;;;28.20;43.59;100828.28;4922865;28;45517;-85
2021/07/26 01:50:28;;;;;;;;;7.25;6.75;;;;;28.20;42.97;100829.09;4935672;28;46045;-85
2021/07/26 01:52:54;;;;;;;;;6.25;6.25;;;;;28.18;43.60;100829.31;4925828;28;45425;-85
2021/07/26 01:55:20;;;;;;;;;8.25;6.00;;;;;28.22;43.46;100834.22;4927233;28;45484;-85
2021/07/26 01:57:45;;;;;;;;;6.00;6.00;;;;;28.21;42.83;100836.06;4927030;28;45342;-85
2021/07/26 02:00:11;;;;;;;;;4.50;4.50;;;;;28.21;43.20;100827.25;4925904;28;46201;-85
2021/07/26 02:02:37;;;;;;;;;4.00;4.00;;;;;28.21;43.19;100827.25;4922326;28;45430;-84
2021/07/26 02:05:03;;;;;;;;;5.75;4.50;;;;;28.24;43.31;100832.97;4934431;28;45477;-84
2021/07/26 02:07:28;;;;;;;;;4.00;4.00;;;;;28.21;43.51;100821.91;4928424;28;45350;-84
2021/07/26 02:09:54;;;;;;;;;4.75;4.75;;;;;28.25;42.93;100837.28;4926993;28;46198;-84
2021/07/26 02:12:19;;;;;;;;;7.00;5.50;;;;;28.22;43.49;100834.22;4926730;28;45456;-85
2021/07/26 02:14:44;;;;;;;;;4.00;4.00;;;;;28.26;43.73;100835.44;4922789;28;45600;-84
2021/07/26 02:17:10;;;;;;;;;6.75;6.00;;;;;28.26;43.71;100841.56;4923443;28;45576;-85
2021/07/26 02:19:35;;;;;;;;;4.75;4.75;;;;;28.26;43.15;100838.09;4926623;28;45469;-85
2021/07/26 02:22:00;;;;;;;;;4.00;4.00;;;;;28.27;43.01;100845.91;4925212;28;45480;-85
2021/07/26 02:24:26;;;;;;;;;4.25;4.25;;;;;28.27;43.57;100845.91;4926636;28;45507;-85
2021/07/26 02:26:51;;;;;;;;;6.50;6.00;;;;;28.27;43.21;100848.56;4922659;28;45327;-85
2021/07/26 02:29:18;;;;;;;;;7.00;5.75;;;;;28.27;43.31;100851.25;4934287;28;46510;-85
2021/07/26 02:31:43;;;;;;;;;5.00;4.00;;;;;28.28;43.59;100844.03;4926004;28;45572;-86
2021/07/26 02:34:08;;;;;;;;;6.75;6.00;;;;;28.28;43.17;100844.88;4926561;28;45305;-85
2021/07/26 02:36:34;;;;;;;;;6.75;5.00;;;;;28.25;43.21;100839.13;4926659;28;45548;-85
2021/07/26 02:38:59;;;;;;;;;5.50;5.50;;;;;28.27;43.43;100845.06;4924048;28;46353;-85
2021/07/26 02:41:25;;;;;;;;;5.50;4.50;;;;;28.29;43.58;100843.00;4921987;28;45410;-85
2021/07/26 02:43:50;;;;;;;;;5.00;5.00;;;;;28.30;43.79;100849.97;4925208;28;45546;-85
2021/07/26 02:46:16;;;;;;;;;6.00;5.00;;;;;28.29;42.88;100849.16;4925345;28;45362;-85
2021/07/26 02:48:41;;;;;;;;;8.50;6.50;;;;;28.32;43.13;100845.22;4926240;28;46122;-85
2021/07/26 02:51:07;;;;;;;;;6.00;5.50;;;;;28.31;43.65;100846.28;4924760;28;45187;-85
2021/07/26 02:53:32;;;;;;;;;5.00;5.00;;;;;28.29;43.71;100848.34;4921810;28;45420;-85
2021/07/26 02:55:58;;;;;;;;;7.75;6.75;;;;;28.32;43.58;100847.91;4924749;28;45342;-85
2021/07/26 02:58:24;;;;;;;;;6.50;6.25;;;;;28.33;43.06;100846.88;4926077;28;46186;-85
2021/07/26 03:00:50;;;;;;;;;5.00;5.00;;;;;28.34;43.63;100842.34;4929726;28;45542;-85
2021/07/26 03:03:16;;;;;;;;;5.00;5.00;;;;;28.32;43.54;100841.72;4937139;28;45559;-84
2021/07/26 03:05:42;;;;;;;;;6.00;5.00;;;;;28.35;42.98;100849.31;4921453;28;45559;-84
2021/07/26 03:08:07;;;;;;;;;6.00;6.00;;;;;28.34;42.99;100843.13;4933155;28;46421;-84
2021/07/26 03:10:32;;;;;;;;;6.75;5.50;;;;;28.35;43.70;100844.78;4934195;28;45650;-84
2021/07/26 03:12:58;;;;;;;;;5.25;5.25;;;;;28.32;43.69;100842.53;4931740;28;45479;-84
2021/07/26 03:15:23;;;;;;;;;5.00;5.00;;;;;28.35;42.83;100849.31;4925927;28;45362;-85
2021/07/26 03:17:49;;;;;;;;;3.25;3.25;;;;;28.37;43.13;100849.91;4922190;28;45778;-85
2021/07/26 03:20:15;;;;;;;;;4.25;4.25;;;;;28.36;43.66;100854.47;4922328;28;45412;-85
2021/07/26 03:23:05;;;;;;;;;5.25;5.25;;;;;28.37;43.14;100848.03;4926126;28;45266;-85
2021/07/26 03:25:32;;;;;;;;;5.25;5.25;;;;;28.37;43.74;100845.38;4925618;28;45502;-84
2021/07/26 03:27:58;;;;;;;;;4.00;4.00;;;;;28.38;43.65;100848.88;4925395;28;47015;-85
2021/07/26 03:30:24;;;;;;;;;5.00;5.00;;;;;28.38;43.16;100843.53;4925520;28;45504;-85
2021/07/26 03:32:50;;;;;;;;;5.00;5.00;;;;;28.36;43.53;100846.44;4922019;28;45525;-85
2021/07/26 03:35:17;;;;;;;;;5.75;5.50;;;;;28.38;43.41;100852.38;4922154;28;45414;-85
2021/07/26 03:37:42;;;;;;;;;4.50;4.50;;;;;28.38;42.92;100843.53;4925678;28;46519;-85
2021/07/26 03:40:08;;;;;;;;;5.00;5.00;;;;;28.38;43.82;100846.19;4925524;28;45342;-85
2021/07/26 03:42:38;;;;;;;;;4.00;4.00;;;;;28.36;43.25;100846.44;4925469;28;45362;-85
2021/07/26 03:45:05;;;;;;;;;5.25;5.00;;;;;28.36;43.53;100854.47;4921507;28;45433;-86
2021/07/26 03:47:31;;;;;;;;;5.00;5.00;;;;;28.37;42.97;100844.53;4934902;28;45354;-85
2021/07/26 03:49:56;;;;;;;;;7.50;7.50;;;;;28.37;42.88;100845.38;4924123;28;45343;-85
2021/07/26 03:52:22;;;;;;;;;5.75;5.75;;;;;28.39;43.11;100856.66;4925517;28;45210;-85
2021/07/26 03:54:47;;;;;;;;;5.25;5.25;;;;;28.36;42.97;100846.44;4925747;28;45609;-85
2021/07/26 03:57:13;;;;;;;;;7.75;6.50;;;;;28.38;43.69;100846.19;4926735;28;46405;-85
2021/07/26 03:59:38;;;;;;;;;8.50;6.00;;;;;28.36;43.93;100850.97;4922902;28;45292;-84
2021/07/26 04:02:04;;;;;;;;;5.00;5.00;;;;;28.37;43.14;100858.75;4940313;28;45462;-84
2021/07/26 04:04:29;;;;;;;;;8.75;7.50;;;;;28.38;43.58;100859.56;4935482;28;45441;-84
2021/07/26 04:06:58;;;;;;;;;6.25;5.00;;;;;28.36;43.11;100850.97;4935152;28;45404;-84
2021/07/26 04:09:27;;;;;;;;;6.25;5.00;;;;;28.39;43.18;100848.63;4938811;28;45580;-84
2021/07/26 04:12:16;;;;;;;;;5.75;5.75;;;;;28.40;43.18;100852.13;4925029;28;45307;-84
2021/07/26 04:14:41;;;;;;;;;6.00;6.00;;;;;28.38;43.17;100852.38;4924025;28;45688;-84
2021/07/26 04:17:07;;;;;;;;;5.75;5.75;;;;;28.40;43.12;100847.59;4925812;28;46493;-85
2021/07/26 04:19:32;;;;;;;;;5.75;5.75;;;;;28.41;43.07;100848.44;4928456;28;45452;-85
2021/07/26 04:21:58;;;;;;;;;5.33;4.33;;;;;28.39;42.67;100851.31;4928760;28;45271;-85
2021/07/26 04:24:25;;;;;;;;;5.33;5.33;;;;;28.40;43.80;100849.47;4924845;28;45504;-85
2021/07/26 04:26:50;;;;;;;;;5.00;5.00;;;;;28.39;43.38;100850.50;4938903;28;46266;-84
2021/07/26 04:29:15;;;;;;;;;7.50;6.50;;;;;28.40;43.75;100855.63;4924591;28;45350;-84
2021/07/26 04:31:43;;;;;;;;;7.75;6.00;;;;;28.40;43.43;100852.97;4928372;28;45334;-85
2021/07/26 04:34:09;;;;;;;;;6.00;6.00;;;;;28.39;43.54;100850.50;4928397;28;45599;-84
2021/07/26 04:36:34;;;;;;;;;5.00;4.00;;;;;28.40;43.72;100852.13;4928128;28;46952;-84
2021/07/26 04:39:00;;;;;;;;;6.50;6.50;;;;;28.37;43.37;100848.03;4925813;28;45408;-85
2021/07/26 04:41:25;;;;;;;;;6.75;5.50;;;;;28.42;43.53;100863.41;4923431;28;45417;-84
2021/07/26 04:43:50;;;;;;;;;4.50;4.50;;;;;28.43;43.73;100861.56;4927398;28;45500;-85
2021/07/26 04:46:16;;;;;;;;;5.00;5.00;;;;;28.40;43.19;100860.16;4927987;28;45390;-85
2021/07/26 04:48:41;;;;;;;;;5.00;5.00;;;;;28.40;43.10;100854.81;4928132;28;45523;-84
2021/07/26 04:51:06;;;;;;;;;5.00;5.00;;;;;28.42;43.01;100866.09;4926518;28;45507;-84
2021/07/26 04:53:33;;;;;;;;;5.00;4.75;;;;;28.43;43.78;100864.25;4923565;28;45416;-85
2021/07/26 04:55:58;;;;;;;;;6.00;6.00;;;;;28.43;43.04;100866.91;4925997;28;46036;-84
2021/07/26 04:58:23;;;;;;;;;5.67;5.67;;;;;28.42;42.89;100867.97;4927783;28;45326;-85
2021/07/26 05:00:49;;;;;;;;;7.00;5.25;;;;;28.38;43.89;100872.94;4927884;28;45424;-85
2021/07/26 05:03:14;;;;;;;;;4.75;4.75;;;;;28.41;43.20;100864.47;4923989;28;45464;-85
2021/07/26 05:05:39;;;;;;;;;6.00;6.00;;;;;28.43;43.73;100865.06;4938093;28;48580;-85
2021/07/26 05:08:05;;;;;;;;;4.50;4.50;;;;;28.44;43.12;100866.72;4924243;28;45344;-84
2021/07/26 05:10:30;;;;;;;;;5.75;5.75;;;;;28.40;43.71;100865.50;4932841;28;45377;-85
2021/07/26 05:12:56;;;;;;;;;5.50;5.50;;;;;28.40;43.18;100865.50;4933814;28;45519;-85
2021/07/26 05:15:21;;;;;;;;;6.00;4.25;;;;;28.43;43.53;100866.91;4927640;28;45377;-85
2021/07/26 05:17:46;;;;;;;;;6.75;6.25;;;;;28.44;43.77;100879.28;4923634;28;45295;-85
2021/07/26 05:20:12;;;;;;;;;4.75;4.75;;;;;28.42;43.72;100882.16;4924361;28;45234;-85
2021/07/26 05:22:39;;;;;;;;;6.00;5.75;;;;;28.43;43.80;100891.00;4927534;28;45265;-85
2021/07/26 05:25:08;;;;;;;;;7.00;7.00;;;;;28.43;43.64;100888.31;4927207;28;47226;-76
2021/07/26 05:27:34;;;;;;;;;6.00;6.00;;;;;28.43;43.34;100888.31;4927361;28;45628;-83
2021/07/26 05:30:00;;;;;;;;;6.00;6.00;;;;;28.39;43.58;100885.28;4925030;28;45311;-79
2021/07/26 05:32:25;;;;;;;;;6.00;6.00;;;;;28.43;43.64;100888.31;4923016;28;45314;-78
2021/07/26 05:34:50;;;;;;;;;7.00;5.33;;;;;28.43;43.58;100891.81;4926592;28;45352;-74
2021/07/26 05:37:17;;;;;;;;;6.25;5.25;;;;;28.43;43.52;100888.31;4927310;28;45404;-76
2021/07/26 05:39:42;;;;;;;;;4.67;4.67;;;;;28.43;43.32;100891.00;4927340;28;45412;-87
2021/07/26 05:42:10;;;;;;;;;4.50;4.50;;;;;28.36;43.22;100888.41;4926353;28;45783;-83
2021/07/26 05:44:38;;;;;;;;;6.00;6.00;;;;;28.44;43.33;100892.66;4934753;28;46659;-84
2021/07/26 05:47:04;;;;;;;;;5.33;4.33;;;;;28.44;43.41;100893.47;4935862;28;45442;-85
2021/07/26 05:49:29;;;;;;;;;6.25;5.25;;;;;28.45;43.75;100895.13;4930854;28;45480;-87
2021/07/26 05:51:54;;;;;;;;;5.00;5.00;;;;;28.46;43.60;100898.63;4936722;28;45468;-87
2021/07/26 05:54:20;;;;;;;;;7.00;7.00;;;;;28.44;43.54;100896.16;4933081;28;45475;-84
2021/07/26 05:56:47;;;;;;;;;5.00;5.00;;;;;28.48;43.79;100901.88;4937719;28;45508;-86
2021/07/26 05:59:13;;;;;;;;;6.33;5.00;;;;;28.48;43.66;100905.38;4928716;28;45287;-85
2021/07/26 06:01:47;;;;;;;;;6.50;4.50;;;;;28.48;44.13;100902.72;4927865;28;46646;-85
2021/07/26 06:04:17;;;;;;;;;6.75;6.75;;;;;28.44;43.56;100896.16;4926495;28;46511;-86
2021/07/26 06:06:45;;;;;;;;;6.75;5.75;;;;;28.46;44.23;100899.44;4929665;28;45394;-85
2021/07/26 06:09:11;;;;;;;;;5.00;5.00;;;;;28.48;43.57;100908.06;4927954;28;45453;-75
2021/07/26 06:11:41;;;;;;;;;6.00;6.00;;;;;28.48;43.56;100907.25;4922187;28;45371;-75
2021/07/26 06:14:07;;;;;;;;;5.75;5.75;;;;;28.47;43.56;100913.66;4923585;28;45355;-83
2021/07/26 06:16:32;;;;;;;;;5.75;5.00;;;;;28.45;44.27;100913.03;4926872;28;45249;-81
2021/07/26 06:19:01;;;;;;;;;7.00;6.75;;;;;28.46;43.51;100909.31;4928193;28;45440;-91
2021/07/26 06:21:26;;;;;;;;;5.00;5.00;;;;;28.47;43.71;100916.31;4936987;28;45476;-89
2021/07/26 06:23:52;;;;;;;;;7.75;5.50;;;;;28.45;44.28;100905.81;4923195;28;47019;-88
2021/07/26 06:26:17;;;;;;;;;5.00;5.00;;;;;28.48;44.32;100909.91;4938541;28;45323;-88
2021/07/26 06:28:43;;;;;;;;;6.25;6.25;;;;;28.46;43.78;100910.16;4933686;28;45489;-88
2021/07/26 06:31:10;;;;;;;;;4.50;4.50;;;;;28.44;43.87;100906.03;4931007;28;45584;-89
2021/07/26 06:33:35;;;;;;;;;6.25;5.75;;;;;28.49;44.32;100923.09;4926525;28;46274;-88
2021/07/26 06:36:04;;;;;;;;;6.25;6.25;;;;;28.47;43.86;100913.66;4924326;28;45491;-89
2021/07/26 06:38:29;;;;;;;;;6.00;6.00;;;;;28.48;43.95;100921.44;4921622;28;45396;-89
2021/07/26 06:40:55;;;;;;;;;5.75;5.50;;;;;28.49;43.76;100924.94;4925417;28;45408;-88
2021/07/26 06:43:20;;;;;;;;;8.75;7.00;;;;;28.47;44.18;100916.31;4926394;28;45306;-89
2021/07/26 06:45:46;;;;;;;;;5.75;5.25;;;;;28.45;43.82;100921.88;4926515;28;45368;-89
2021/07/26 06:48:11;;;;;;;;;8.00;5.25;;;;;28.49;43.73;100931.13;4925683;28;45903;-88
2021/07/26 06:50:39;;;;;;;;;8.75;8.00;;;;;28.48;43.85;100932.16;4921673;28;45675;-88
2021/07/26 06:53:04;;;;;;;;;8.75;8.75;;;;;28.44;43.58;100919.41;4933541;28;46364;-88
2021/07/26 06:55:30;;;;;;;;;8.00;6.25;;;;;28.44;43.70;100930.94;4927818;28;45580;-89
2021/07/26 06:57:55;;;;;;;;;5.75;5.25;;;;;28.47;43.76;100930.50;4922526;28;45412;-89
2021/07/26 07:00:21;;;;;;;;;6.75;6.75;;;;;28.44;44.29;100927.44;4919084;28;45439;-89
2021/07/26 07:02:47;;;;;;;;;6.00;6.00;;;;;28.48;44.33;100940.19;4922004;28;46344;-88
2021/07/26 07:05:12;;;;;;;;;6.75;6.75;;;;;28.46;43.97;100942.25;4922540;28;45420;-88
2021/07/26 07:07:37;;;;;;;;;5.25;5.25;;;;;28.49;44.46;100941.00;4924756;28;45308;-88
2021/07/26 07:10:03;;;;;;;;;6.00;6.00;;;;;28.49;44.31;100946.34;4926406;28;45493;-89
2021/07/26 07:12:28;;;;;;;;;6.00;6.00;;;;;28.46;44.34;100941.44;4925897;28;46271;-89
2021/07/26 07:14:54;;;;;;;;;6.75;5.75;;;;;28.49;43.60;100941.00;4922679;28;45543;-88
2021/07/26 07:17:19;;;;;;;;;9.50;5.75;;;;;28.46;44.21;100944.13;4922205;28;45498;-89
2021/07/26 07:19:46;;;;;;;;;7.75;6.75;;;;;28.47;43.86;100949.22;4932027;28;45303;-89
2021/07/26 07:22:11;;;;;;;;;6.50;4.75;;;;;28.49;43.95;100955.19;4925643;28;46232;-88
2021/07/26 07:24:36;;;;;;;;;7.50;7.25;;;;;28.50;44.38;100956.00;4925887;28;45282;-89
2021/07/26 07:27:02;;;;;;;;;6.50;6.50;;;;;28.47;44.08;100959.13;4923701;28;45372;-88
2021/07/26 07:29:27;;;;;;;;;9.25;6.25;;;;;28.48;43.87;100958.09;4921701;28;45412;-89
2021/07/26 07:31:53;;;;;;;;;7.75;7.75;;;;;28.48;43.85;100956.22;4926840;28;46094;-89
2021/07/26 07:34:18;;;;;;;;;6.00;5.67;;;;;28.51;43.72;100958.47;4928995;28;45532;-88
2021/07/26 07:36:44;;;;;;;;;7.50;5.75;;;;;28.51;44.17;100963.00;4928434;28;45509;-88
2021/07/26 07:39:09;;;;;;;;;7.50;7.50;;;;;28.50;44.42;100962.16;4940570;28;45479;-88
2021/07/26 07:41:35;;;;;;;;;5.75;5.00;;;;;28.51;44.45;100965.66;4924836;28;46552;-88
2021/07/26 07:44:01;;;;;;;;;7.75;6.50;;;;;28.51;44.09;100961.16;4936556;28;45641;-89
2021/07/26 07:46:27;;;;;;;;;7.75;7.75;;;;;28.49;44.29;100963.22;4931321;28;45472;-88
2021/07/26 07:48:52;;;;;;;;;6.50;6.50;;;;;28.47;43.67;100961.81;4928802;28;45433;-89
2021/07/26 07:51:18;;;;;;;;;9.00;5.00;;;;;28.50;44.39;100972.06;4928903;28;46330;-88
2021/07/26 07:53:44;;;;;;;;;8.75;7.00;;;;;28.50;43.63;100967.53;4924640;28;45468;-88
2021/07/26 07:56:09;;;;;;;;;11.00;8.25;;;;;28.48;44.41;100972.28;4926011;28;45519;-88
2021/07/26 07:58:36;;;;;;;;;6.00;6.00;;;;;28.50;44.50;100977.41;4934836;28;45506;-88
2021/07/26 08:01:02;;;;;;;;;7.50;7.50;;;;;28.50;43.87;100977.41;4935191;28;45578;-89
2021/07/26 08:03:28;;;;;;;;;6.75;6.00;;;;;28.50;43.67;100985.44;4938252;28;45374;-89
2021/07/26 08:05:54;;;;;;;;;6.00;5.75;;;;;28.42;44.57;100970.44;4925627;28;45504;-89
2021/07/26 08:08:19;;;;;;;;;9.00;7.50;;;;;28.49;44.33;100981.97;4924716;28;45379;-88
2021/07/26 08:10:45;;;;;;;;;8.00;7.00;;;;;28.51;43.79;100987.09;4928590;28;46247;-89
2021/07/26 08:13:11;;;;;;;;;3.00;3.00;;;;;28.46;44.34;100985.06;4928561;28;45608;-89
2021/07/26 08:15:36;;;;;;;;;7.75;7.00;;;;;28.51;43.90;100992.44;4928720;28;45516;-88
2021/07/26 08:18:03;;;;;;;;;8.25;8.25;;;;;28.47;43.95;100992.03;4924777;28;45390;-88
2021/07/26 08:20:29;;;;;;;;;6.00;6.00;;;;;28.50;44.01;101001.50;4937205;28;45501;-88
2021/07/26 08:22:54;;;;;;;;;7.00;7.00;;;;;28.49;44.36;101003.38;4927545;28;45501;-89
2021/07/26 08:25:19;;;;;;;;;7.75;6.50;;;;;28.47;44.42;101000.06;4932514;28;45457;-88
2021/07/26 08:27:48;;;;;;;;;6.00;5.75;;;;;28.50;43.77;101006.84;4936204;28;45315;-88
2021/07/26 08:30:14;;;;;;;;;5.75;5.00;;;;;28.46;44.38;101003.81;4924487;28;46400;-89
2021/07/26 08:32:39;;;;;;;;;7.50;7.50;;;;;28.50;44.34;101004.16;4938477;28;45314;-89
2021/07/26 08:35:05;;;;;;;;;7.25;7.25;;;;;28.51;44.43;101021.88;4926392;28;45362;-89
2021/07/26 08:37:31;;;;;;;;;6.50;6.25;;;;;28.44;43.91;101005.84;4928274;28;45468;-89
2021/07/26 08:40:00;;;;;;;;;6.50;6.00;;;;;28.50;44.16;101018.38;4928188;28;45540;-89
2021/07/26 08:42:26;;;;;;;;;5.00;5.00;;;;;28.49;44.47;101015.94;4928245;28;45224;-89
2021/07/26 08:44:51;;;;;;;;;6.75;6.75;;;;;28.47;43.93;101018.00;4924170;28;45417;-88
2021/07/26 08:47:17;;;;;;;;;9.00;7.67;;;;;28.48;44.52;101017.78;4935856;28;45290;-88
2021/07/26 08:49:43;;;;;;;;;5.33;5.33;;;;;28.49;44.32;101022.09;4928194;28;46426;-89
2021/07/26 08:52:09;;;;;;;;;7.50;6.75;;;;;28.50;44.53;101023.72;4928218;28;45567;-89
2021/07/26 08:54:37;;;;;;;;;7.25;6.75;;;;;28.50;44.47;101017.53;4928320;28;45531;-88
2021/07/26 08:57:02;;;;;;;;;7.75;7.00;;;;;28.52;43.73;101026.19;4924376;28;45354;-88
2021/07/26 08:59:28;;;;;;;;;7.25;7.00;;;;;28.51;44.45;101028.06;4936927;28;46288;-89
2021/07/26 09:01:54;;;;;;;;;7.67;7.67;;;;;28.49;44.36;101019.44;4926787;28;45438;-88
2021/07/26 09:04:20;;;;;;;;;6.33;6.33;;;;;28.49;44.38;101024.78;4928136;28;45505;-88
2021/07/26 09:06:46;;;;;;;;;6.00;6.00;;;;;28.50;43.83;101030.94;4929218;28;45543;-89
2021/07/26 09:09:12;;;;;;;;;8.00;8.00;;;;;28.48;43.97;101017.78;4939086;28;46279;-89
2021/07/26 09:11:45;;;;;;;;;7.00;7.00;;;;;28.52;44.41;101034.22;4922850;28;50941;-89
2021/07/26 09:14:11;;;;;;;;;6.00;6.00;;;;;28.50;43.82;101037.09;4939696;28;45405;-89
2021/07/26 09:16:36;;;;;;;;;5.00;5.00;;;;;28.47;44.02;101026.03;4928381;28;45496;-89
2021/07/26 09:19:06;;;;;;;;;6.25;6.25;;;;;28.44;43.96;101035.28;4927932;28;46220;-89
2021/07/26 09:21:59;;;;;;;;;6.75;5.50;;;;;28.49;43.95;101043.50;4927649;28;45596;-89
2021/07/26 09:24:27;;;;;;;;;6.00;6.00;;;;;28.47;44.00;101039.41;4927474;28;45337;-89
2021/07/26 09:26:54;;;;;;;;;7.00;6.50;;;;;28.47;44.59;101039.41;4924530;28;45536;-88
2021/07/26 09:29:30;;;;;;;;;7.00;5.75;;;;;28.50;44.50;101047.81;4923371;28;45385;-89
2021/07/26 09:32:05;;;;;;;;;6.25;6.00;;;;;28.48;44.48;101052.56;4925926;28;45438;-88
2021/07/26 09:34:30;;;;;;;;;6.50;6.50;;;;;28.46;43.86;101051.16;4927394;28;45497;-89
2021/07/26 09:36:57;;;;;;;;;6.25;5.50;;;;;28.50;44.27;101049.66;4927885;28;45409;-90
2021/07/26 09:39:27;;;;;;;;;7.25;7.25;;;;;28.48;44.48;101046.41;4938148;28;47168;-90
2021/07/26 09:41:53;;;;;;;;;8.00;8.00;;;;;28.46;44.47;101046.63;4923456;28;45540;-89
2021/07/26 09:44:37;;;;;;;;;5.75;5.75;;;;;28.47;43.74;101053.59;4935257;28;45491;-89
2021/07/26 09:47:20;;;;;;;;;8.00;8.00;;;;;28.48;44.33;101054.41;4933641;28;45521;-89
2021/07/26 09:49:45;;;;;;;;;8.25;7.75;;;;;28.51;44.37;101056.66;4934767;28;46664;-90
2021/07/26 09:52:11;;;;;;;;;6.50;5.75;;;;;28.51;43.81;101059.34;4932552;28;45587;-89
2021/07/26 09:54:43;;;;;;;;;8.25;6.50;;;;;28.51;43.90;101067.38;4924767;28;45637;-90
2021/07/26 09:57:19;;;;;;;;;7.00;7.00;;;;;28.50;44.18;101061.19;4935513;28;45537;-89
2021/07/26 09:59:48;;;;;;;;;7.50;7.50;;;;;28.51;44.22;101062.84;4938265;28;46119;-89
2021/07/26 10:02:20;;;;;;;;;7.75;7.00;;;;;28.48;43.84;101051.75;4924255;28;45322;-89
2021/07/26 10:04:48;;;;;;;;;7.25;6.75;;;;;28.50;43.95;101066.53;4926826;28;45461;-90
2021/07/26 10:07:17;;;;;;;;;8.50;8.50;;;;;28.50;43.84;101061.19;4929829;28;45455;-89
2021/07/26 10:09:45;;;;;;;;;7.00;7.00;;;;;28.52;44.38;101069.81;4934722;28;47003;-89
2021/07/26 10:12:15;;;;;;;;;6.25;5.50;;;;;28.52;44.42;101069.03;4925937;28;45404;-89
2021/07/26 10:14:41;;;;;;;;;5.50;5.50;;;;;28.49;44.51;101066.78;4922365;28;45429;-90
2021/07/26 10:17:07;;;;;;;;;6.67;6.33;;;;;28.48;43.74;101049.06;4934619;28;45352;-89
2021/07/26 10:19:33;;;;;;;;;6.00;5.67;;;;;28.52;44.48;101051.06;4938117;28;46332;-90
2021/07/26 10:22:00;;;;;;;;;7.75;7.75;;;;;28.47;44.12;101045.56;4933267;28;45333;-90
2021/07/26 10:24:34;;;;;;;;;5.00;4.00;;;;;28.53;44.43;101057.25;4928059;28;45414;-91
2021/07/26 10:27:02;;;;;;;;;6.75;5.75;;;;;28.45;44.36;101041.47;4923872;28;45583;-89
2021/07/26 10:29:49;;;;;;;;;6.75;6.75;;;;;28.52;44.38;101053.75;4935327;28;46505;-90
2021/07/26 10:32:30;;;;;;;;;5.00;5.00;;;;;28.51;44.27;101049.47;4920212;28;45519;-90
2021/07/26 10:34:56;;;;;;;;;5.00;4.67;;;;;28.51;44.62;101054.81;4934773;28;45216;-89
2021/07/26 10:37:37;;;;;;;;;7.25;6.75;;;;;28.51;43.85;101052.13;4929863;28;45247;-89
2021/07/26 10:40:31;;;;;;;;;7.25;6.25;;;;;28.51;44.59;101048.63;4926732;28;45330;-89
2021/07/26 10:43:01;;;;;;;;;7.33;6.33;;;;;28.51;44.03;101052.13;4927190;28;45485;-89
2021/07/26 10:45:33;;;;;;;;;7.25;6.00;;;;;28.51;43.82;101048.63;4928193;28;45326;-88
2021/07/26 10:48:21;;;;;;;;;6.75;5.00;;;;;28.53;44.32;101057.25;4924263;28;45496;-89
2021/07/26 10:50:51;;;;;;;;;9.75;7.75;;;;;28.52;44.49;101056.44;4921999;28;46324;-89
2021/07/26 10:53:31;;;;;;;;;7.75;7.75;;;;;28.52;43.96;101064.47;4934260;28;45280;-90
2021/07/26 10:56:14;;;;;;;;;6.50;6.00;;;;;28.54;44.03;101058.09;4933650;28;45362;-89
2021/07/26 10:58:42;;;;;;;;;6.00;6.00;;;;;28.54;43.98;101063.44;4926867;28;45376;-89
2021/07/26 11:01:20;;;;;;;;;8.50;7.25;;;;;28.52;44.46;101059.09;4926073;28;45546;-89
2021/07/26 11:03:49;;;;;;;;;5.00;5.00;;;;;28.54;44.29;101050.88;4926463;28;45402;-89
2021/07/26 11:06:39;;;;;;;;;7.00;7.00;;;;;28.55;43.83;101046.34;4925048;28;45370;-89
2021/07/26 11:09:32;;;;;;;;;5.25;5.25;;;;;28.55;43.83;101049.81;4924248;28;45447;-89
2021/07/26 11:11:58;;;;;;;;;9.25;8.00;;;;;28.53;44.25;101051.91;4922757;28;47434;-89
2021/07/26 11:14:23;;;;;;;;;6.25;6.00;;;;;28.54;44.55;101042.03;4922127;28;45438;-90
2021/07/26 11:16:48;;;;;;;;;7.00;7.00;;;;;28.55;44.50;101046.34;4926799;28;45460;-89
2021/07/26 11:19:33;;;;;;;;;8.00;7.75;;;;;28.56;43.79;101047.97;4933394;28;45533;-89
2021/07/26 11:21:59;;;;;;;;;6.00;5.00;;;;;28.55;44.08;101057.84;4932729;28;46320;-89
2021/07/26 11:24:39;;;;;;;;;7.00;7.00;;;;;28.56;44.42;101046.13;4936748;28;45460;-90
2021/07/26 11:27:05;;;;;;;;;7.50;7.50;;;;;28.57;44.11;101046.94;4925616;28;45415;-90